createdAt,value
2023-03-01T00:00:39.551Z,2.69
2023-03-01T00:03:42.262Z,2.67
2023-03-01T00:06:47.256Z,2.63
2023-03-01T00:09:50.620Z,2.66
2023-03-01T00:12:53.134Z,2.66
2023-03-01T00:15:55.439Z,2.63
2023-03-01T00:18:58.883Z,2.63
2023-03-01T00:22:01.168Z,2.63
2023-03-01T00:25:03.779Z,2.63
2023-03-01T00:28:05.939Z,2.62
2023-03-01T00:31:11.959Z,2.56
2023-03-01T00:34:14.530Z,2.60
2023-03-01T00:37:16.917Z,2.60
2023-03-01T00:40:21.633Z,2.56
2023-03-01T00:43:24.162Z,2.51
2023-03-01T00:46:28.163Z,2.56
2023-03-01T00:49:30.647Z,2.50
2023-03-01T00:52:32.921Z,2.52
2023-03-01T00:55:35.082Z,2.47
2023-03-01T00:58:37.373Z,2.55
2023-03-01T01:01:40.254Z,2.50
2023-03-01T01:04:42.551Z,2.50
2023-03-01T01:07:44.633Z,2.43
2023-03-01T01:10:48.328Z,2.42
2023-03-01T01:13:50.944Z,2.47
2023-03-01T01:16:53.078Z,2.45
2023-03-01T01:19:55.426Z,2.48
2023-03-01T01:22:58.080Z,2.50
2023-03-01T01:26:06.092Z,2.46
2023-03-01T01:29:09.534Z,2.49
2023-03-01T01:32:12.074Z,2.48
2023-03-01T01:35:14.107Z,2.52
2023-03-01T01:38:16.223Z,2.49
2023-03-01T01:41:19.378Z,2.52
2023-03-01T01:44:21.494Z,2.52
2023-03-01T01:47:24.471Z,2.49
2023-03-01T01:50:27.577Z,2.51
2023-03-01T01:53:30.252Z,2.49
2023-03-01T01:56:32.579Z,2.52
2023-03-01T01:59:35.619Z,2.49
2023-03-01T02:02:39.258Z,2.52
2023-03-01T02:06:18.247Z,2.48
2023-03-01T02:09:23.096Z,2.51
2023-03-01T02:12:26.915Z,2.50
2023-03-01T02:15:34.187Z,2.48
2023-03-01T02:18:36.552Z,2.48
2023-03-01T02:21:43.888Z,2.47
2023-03-01T02:25:07.259Z,2.46
2023-03-01T02:28:15.072Z,2.47
2023-03-01T02:31:38.711Z,2.44
2023-03-01T02:34:41.052Z,2.44
2023-03-01T02:37:44.508Z,2.48
2023-03-01T02:40:50.959Z,2.49
2023-03-01T02:43:53.693Z,2.49
2023-03-01T02:46:59.186Z,2.49
2023-03-01T02:50:01.436Z,2.51
2023-03-01T02:53:18.799Z,2.49
2023-03-01T02:56:20.915Z,2.49
2023-03-01T02:59:27.843Z,2.45
2023-03-01T03:02:38.728Z,2.39
2023-03-01T03:05:40.947Z,2.42
2023-03-01T03:08:43.028Z,2.45
2023-03-01T03:11:46.280Z,2.47
2023-03-01T03:14:48.338Z,2.37
2023-03-01T03:17:51.593Z,2.42
2023-03-01T03:20:55.404Z,2.39
2023-03-01T03:23:59.275Z,2.43
2023-03-01T03:27:01.404Z,2.41
2023-03-01T03:30:03.769Z,2.45
2023-03-01T03:33:07.008Z,2.43
2023-03-01T03:36:13.990Z,2.43
2023-03-01T03:39:16.001Z,2.37
2023-03-01T03:42:18.151Z,2.37
2023-03-01T03:45:20.419Z,2.35
2023-03-01T03:48:22.501Z,2.25
2023-03-01T03:51:24.807Z,2.17
2023-03-01T03:54:26.897Z,2.17
2023-03-01T03:57:28.907Z,2.13
2023-03-01T04:00:31.538Z,2.15
2023-03-01T04:03:36.235Z,2.19
2023-03-01T04:06:38.402Z,2.14
2023-03-01T04:09:40.474Z,2.14
2023-03-01T04:12:44.309Z,2.07
2023-03-01T04:15:55.957Z,2.04
2023-03-01T04:19:00.834Z,1.99
2023-03-01T04:22:10.435Z,1.92
2023-03-01T04:25:15.091Z,1.85
2023-03-01T04:28:17.802Z,1.92
2023-03-01T04:31:22.725Z,1.93
2023-03-01T04:34:25.102Z,1.89
2023-03-01T04:37:28.100Z,1.84
2023-03-01T04:40:32.157Z,1.77
2023-03-01T04:43:35.276Z,1.84
2023-03-01T04:46:37.387Z,1.77
2023-03-01T04:49:39.608Z,1.76
2023-03-01T04:52:42.307Z,1.74
2023-03-01T04:55:44.398Z,1.82
2023-03-01T04:58:47.566Z,1.79
2023-03-01T05:01:50.805Z,1.82
2023-03-01T05:04:53.132Z,1.82
2023-03-01T05:08:00.920Z,1.72
2023-03-01T05:11:09.993Z,1.70
2023-03-01T05:14:12.301Z,1.55
2023-03-01T05:17:14.378Z,1.63
2023-03-01T05:20:17.571Z,1.63
2023-03-01T05:23:20.061Z,1.54
2023-03-01T05:26:28.260Z,1.55
2023-03-01T05:29:35.918Z,1.58
2023-03-01T05:32:37.993Z,1.50
2023-03-01T05:35:44.504Z,1.53
2023-03-01T05:38:46.627Z,1.49
2023-03-01T05:41:49.165Z,1.52
2023-03-01T05:44:51.223Z,1.52
2023-03-01T05:47:56.112Z,1.55
2023-03-01T05:51:01.734Z,1.52
2023-03-01T05:54:07.035Z,1.56
2023-03-01T05:57:09.081Z,1.55
2023-03-01T06:00:12.983Z,1.49
2023-03-01T06:03:18.179Z,1.55
2023-03-01T06:06:20.406Z,1.40
2023-03-01T06:09:22.613Z,1.41
2023-03-01T06:12:25.093Z,1.47
2023-03-01T06:15:27.290Z,1.47
2023-03-01T06:18:29.256Z,1.46
2023-03-01T06:21:31.628Z,1.44
2023-03-01T06:24:34.296Z,1.35
2023-03-01T06:27:36.498Z,1.43
2023-03-01T06:30:39.842Z,1.44
2023-03-01T06:33:42.057Z,1.54
2023-03-01T06:36:44.168Z,1.58
2023-03-01T06:39:46.331Z,1.60
2023-03-01T06:42:52.123Z,1.63
2023-03-01T06:45:54.201Z,1.60
2023-03-01T06:48:56.484Z,1.62
2023-03-01T06:51:58.940Z,1.62
2023-03-01T06:55:02.872Z,1.61
2023-03-01T06:58:05.092Z,1.58
2023-03-01T07:01:09.998Z,1.48
2023-03-01T07:04:14.131Z,1.45
2023-03-01T07:07:16.360Z,1.44
2023-03-01T07:10:21.636Z,1.47
2023-03-01T07:13:24.597Z,1.54
2023-03-01T07:16:26.951Z,1.54
2023-03-01T07:19:29.446Z,1.50
2023-03-01T07:22:31.601Z,1.54
2023-03-01T07:25:34.043Z,1.54
2023-03-01T07:28:39.303Z,1.52
2023-03-01T07:31:41.743Z,1.61
2023-03-01T07:34:43.778Z,1.60
2023-03-01T07:37:45.943Z,1.69
2023-03-01T07:40:49.159Z,1.76
2023-03-01T07:43:51.326Z,1.72
2023-03-01T07:46:57.426Z,1.69
2023-03-01T07:50:00.110Z,1.74
2023-03-01T07:53:02.293Z,1.71
2023-03-01T07:56:06.600Z,1.74
2023-03-01T07:59:09.109Z,1.78
2023-03-01T08:02:12.107Z,1.76
2023-03-01T08:05:14.482Z,1.76
2023-03-01T08:08:17.510Z,1.80
2023-03-01T08:11:20.414Z,1.84
2023-03-01T08:14:22.459Z,1.91
2023-03-01T08:17:24.656Z,1.96
2023-03-01T08:20:27.114Z,1.96
2023-03-01T08:23:29.199Z,1.97
2023-03-01T08:26:31.894Z,1.99
2023-03-01T08:29:34.750Z,1.97
2023-03-01T08:32:41.103Z,2.04
2023-03-01T08:35:43.180Z,2.05
2023-03-01T08:38:45.400Z,2.09
2023-03-01T08:41:48.411Z,2.07
2023-03-01T08:44:50.471Z,2.15
2023-03-01T08:47:55.331Z,2.15
2023-03-01T08:51:07.602Z,2.11
2023-03-01T08:54:16.451Z,2.12
2023-03-01T08:57:19.021Z,2.09
2023-03-01T09:00:23.331Z,2.21
2023-03-01T09:03:26.368Z,2.14
2023-03-01T09:06:32.308Z,2.25
2023-03-01T09:09:34.539Z,2.23
2023-03-01T09:12:36.682Z,2.27
2023-03-01T09:15:39.511Z,2.33
2023-03-01T09:18:41.898Z,2.30
2023-03-01T09:21:53.193Z,2.25
2023-03-01T09:24:55.310Z,2.29
2023-03-01T09:27:57.386Z,2.25
2023-03-01T09:31:01.666Z,2.32
2023-03-01T09:34:03.770Z,2.26
2023-03-01T09:37:05.907Z,2.33
2023-03-01T09:40:16.745Z,2.35
2023-03-01T09:43:39.776Z,2.39
2023-03-01T09:46:44.835Z,2.43
2023-03-01T09:50:09.468Z,2.34
2023-03-01T09:53:27.731Z,2.35
2023-03-01T09:56:44.319Z,2.39
2023-03-01T09:59:58.532Z,2.39
2023-03-01T10:03:26.757Z,2.19
2023-03-01T10:06:35.308Z,2.36
2023-03-01T10:09:41.203Z,2.26
2023-03-01T10:12:45.808Z,2.24
2023-03-01T10:16:03.116Z,2.29
2023-03-01T10:19:07.775Z,2.33
2023-03-01T10:22:19.223Z,2.36
2023-03-01T10:25:45.900Z,2.41
2023-03-01T10:29:03.526Z,2.40
2023-03-01T10:32:07.929Z,2.37
2023-03-01T10:35:23.046Z,2.36
2023-03-01T10:38:25.235Z,2.41
2023-03-01T10:41:29.105Z,2.55
2023-03-01T10:44:46.485Z,2.60
2023-03-01T10:48:05.227Z,2.68
2023-03-01T10:51:08.982Z,2.71
2023-03-01T10:54:37.744Z,2.61
2023-03-01T10:57:42.936Z,2.68
2023-03-01T11:00:58.401Z,2.66
2023-03-01T11:04:20.678Z,2.65
2023-03-01T11:07:22.703Z,2.71
2023-03-01T11:10:31.864Z,2.76
2023-03-01T11:13:35.587Z,2.71
2023-03-01T11:16:41.098Z,2.60
2023-03-01T11:19:46.912Z,2.66
2023-03-01T11:22:56.768Z,2.62
2023-03-01T11:26:02.876Z,2.74
2023-03-01T11:29:13.692Z,2.77
2023-03-01T11:32:16.951Z,2.75
2023-03-01T11:35:26.607Z,2.75
2023-03-01T11:38:32.072Z,2.82
2023-03-01T11:41:37.748Z,2.82
2023-03-01T11:44:43.339Z,2.88
2023-03-01T11:48:03.641Z,2.90
2023-03-01T11:51:18.169Z,2.95
2023-03-01T11:54:32.046Z,2.98
2023-03-01T11:57:59.138Z,3.01
2023-03-01T12:01:17.751Z,3.17
2023-03-01T12:04:51.638Z,3.28
2023-03-01T12:08:17.217Z,3.32
2023-03-01T12:11:55.577Z,3.34
2023-03-01T12:15:32.704Z,3.40
2023-03-01T12:18:52.913Z,3.40
2023-03-01T12:22:05.586Z,3.40
2023-03-01T12:25:31.271Z,3.41
2023-03-01T12:28:53.253Z,3.47
2023-03-01T12:32:19.224Z,3.44
2023-03-01T12:35:37.251Z,3.42
2023-03-01T12:38:43.539Z,3.47
2023-03-01T12:42:10.684Z,3.47
2023-03-01T12:45:36.354Z,3.46
2023-03-01T12:48:52.131Z,3.47
2023-03-01T12:52:49.256Z,3.49
2023-03-01T12:55:53.161Z,3.52
2023-03-01T12:59:13.651Z,3.48
2023-03-01T13:02:27.793Z,3.46
2023-03-01T13:05:29.901Z,3.48
2023-03-01T13:08:44.093Z,3.55
2023-03-01T13:11:46.604Z,3.54
2023-03-01T13:14:48.776Z,3.48
2023-03-01T13:18:26.603Z,3.56
2023-03-01T13:21:32.583Z,3.66
2023-03-01T13:24:40.053Z,3.70
2023-03-01T13:27:42.498Z,3.74
2023-03-01T13:30:46.434Z,3.70
2023-03-01T13:33:59.483Z,3.64
2023-03-01T13:37:20.698Z,3.70
2023-03-01T13:40:23.711Z,3.72
2023-03-01T13:43:34.024Z,3.75
2023-03-01T13:46:36.921Z,3.81
2023-03-01T13:49:48.127Z,3.79
2023-03-01T13:53:00.263Z,3.78
2023-03-01T13:56:20.752Z,3.77
2023-03-01T13:59:23.834Z,3.88
2023-03-01T14:02:25.994Z,3.88
2023-03-01T14:05:28.244Z,3.95
2023-03-01T14:08:32.489Z,3.91
2023-03-01T14:12:12.219Z,3.90
2023-03-01T14:15:28.556Z,3.93
2023-03-01T14:18:45.005Z,3.96
2023-03-01T14:21:48.031Z,3.98
2023-03-01T14:24:57.511Z,3.96
2023-03-01T14:28:05.867Z,4.01
2023-03-01T14:31:38.442Z,4.05
2023-03-01T14:34:48.299Z,4.00
2023-03-01T14:37:50.987Z,4.03
2023-03-01T14:40:59.547Z,4.06
2023-03-01T14:44:06.291Z,4.05
2023-03-01T14:47:16.876Z,4.08
2023-03-01T14:50:33.903Z,4.08
2023-03-01T14:53:50.111Z,4.10
2023-03-01T14:56:54.672Z,4.13
2023-03-01T15:00:01.991Z,4.10
2023-03-01T15:03:14.523Z,4.11
2023-03-01T15:06:20.518Z,4.10
2023-03-01T15:09:23.854Z,4.18
2023-03-01T15:12:29.417Z,4.18
2023-03-01T15:15:37.523Z,4.19
2023-03-01T15:18:49.022Z,4.15
2023-03-01T15:21:51.476Z,4.11
2023-03-01T15:24:54.515Z,4.16
2023-03-01T15:27:58.736Z,4.13
2023-03-01T15:31:13.153Z,4.18
2023-03-01T15:34:41.395Z,4.27
2023-03-01T15:37:51.644Z,4.33
2023-03-01T15:40:54.852Z,4.29
2023-03-01T15:43:57.055Z,4.33
2023-03-01T15:46:59.306Z,4.32
2023-03-01T15:50:03.456Z,4.31
2023-03-01T15:53:12.318Z,4.29
2023-03-01T15:56:15.209Z,4.30
2023-03-01T15:59:18.269Z,4.33
2023-03-01T16:02:22.376Z,4.38
2023-03-01T16:05:30.217Z,4.31
2023-03-01T16:08:32.430Z,4.35
2023-03-01T16:11:37.892Z,4.38
2023-03-01T16:14:40.552Z,4.36
2023-03-01T16:17:42.857Z,4.35
2023-03-01T16:20:49.426Z,4.35
2023-03-01T16:23:52.729Z,4.35
2023-03-01T16:26:55.064Z,4.38
2023-03-01T16:29:57.211Z,4.36
2023-03-01T16:32:59.652Z,4.37
2023-03-01T16:36:09.372Z,4.33
2023-03-01T16:39:11.775Z,4.33
2023-03-01T16:42:14.483Z,4.34
2023-03-01T16:45:25.387Z,4.32
2023-03-01T16:48:29.238Z,4.34
2023-03-01T16:51:34.179Z,4.34
2023-03-01T16:54:38.534Z,4.34
2023-03-01T16:57:42.575Z,4.31
2023-03-01T17:00:48.858Z,4.32
2023-03-01T17:03:53.493Z,4.33
2023-03-01T17:06:57.845Z,4.33
2023-03-01T17:10:02.933Z,4.31
2023-03-01T17:13:07.430Z,4.35
2023-03-01T17:16:16.267Z,4.34
2023-03-01T17:19:20.162Z,4.35
2023-03-01T17:22:22.439Z,4.33
2023-03-01T17:25:24.834Z,4.33
2023-03-01T17:28:30.439Z,4.32
2023-03-01T17:31:34.727Z,4.34
2023-03-01T17:34:38.697Z,4.32
2023-03-01T17:37:47.548Z,4.33
2023-03-01T17:40:51.844Z,4.31
2023-03-01T17:43:54.894Z,4.25
2023-03-01T17:46:57.437Z,4.29
2023-03-01T17:50:01.033Z,4.27
2023-03-01T17:53:09.782Z,4.28
2023-03-01T17:56:13.365Z,4.28
2023-03-01T17:59:17.798Z,4.26
2023-03-01T18:02:21.011Z,4.24
2023-03-01T18:05:24.269Z,4.21
2023-03-01T18:08:27.084Z,4.20
2023-03-01T18:11:30.536Z,4.20
2023-03-01T18:14:34.552Z,4.19
2023-03-01T18:17:37.058Z,4.19
2023-03-01T18:20:40.537Z,4.19
2023-03-01T18:23:44.780Z,4.19
2023-03-01T18:26:47.536Z,4.19
2023-03-01T18:29:50.324Z,4.18
2023-03-01T18:32:56.774Z,4.20
2023-03-01T18:35:59.806Z,4.22
2023-03-01T18:39:05.792Z,4.24
2023-03-01T18:42:10.062Z,4.23
2023-03-01T18:45:14.795Z,4.22
2023-03-01T18:48:17.676Z,4.17
2023-03-01T18:51:24.290Z,4.19
2023-03-01T18:54:28.834Z,4.17
2023-03-01T18:57:31.831Z,4.16
2023-03-01T19:00:36.412Z,4.16
2023-03-01T19:03:40.605Z,4.14
2023-03-01T19:06:43.375Z,4.14
2023-03-01T19:09:46.426Z,4.12
2023-03-01T19:12:49.621Z,4.11
2023-03-01T19:15:53.386Z,4.11
2023-03-01T19:19:00.111Z,4.11
2023-03-01T19:22:06.064Z,4.11
2023-03-01T19:25:09.360Z,4.11
2023-03-01T19:28:11.939Z,4.10
2023-03-01T19:31:21.654Z,4.10
2023-03-01T19:34:26.141Z,4.11
2023-03-01T19:37:30.300Z,4.12
2023-03-01T19:40:33.909Z,4.11
2023-03-01T19:43:37.302Z,4.09
2023-03-01T19:46:40.688Z,4.09
2023-03-01T19:49:43.905Z,4.10
2023-03-01T19:52:47.005Z,4.11
2023-03-01T19:55:53.250Z,4.08
2023-03-01T19:59:00.988Z,4.09
2023-03-01T20:02:04.708Z,4.10
2023-03-01T20:05:08.474Z,4.11
2023-03-01T20:08:12.646Z,4.09
2023-03-01T20:11:18.041Z,4.14
2023-03-01T20:14:23.907Z,4.16
2023-03-01T20:17:27.286Z,4.18
2023-03-01T20:20:30.684Z,4.22
2023-03-01T20:23:33.550Z,4.25
2023-03-01T20:26:37.410Z,4.27
2023-03-01T20:29:40.877Z,4.26
2023-03-01T20:32:47.055Z,4.26
2023-03-01T20:35:52.066Z,4.27
2023-03-01T20:38:55.495Z,4.28
2023-03-01T20:41:58.171Z,4.26
2023-03-01T20:45:01.293Z,4.27
2023-03-01T20:48:04.446Z,4.27
2023-03-01T20:51:10.003Z,4.29
2023-03-01T20:54:12.842Z,4.28
2023-03-01T20:57:16.815Z,4.29
2023-03-01T21:00:19.819Z,4.28
2023-03-01T21:03:22.947Z,4.28
2023-03-01T21:06:25.947Z,4.27
2023-03-01T21:09:28.479Z,4.26
2023-03-01T21:12:31.199Z,4.26
2023-03-01T21:15:33.478Z,4.25
2023-03-01T21:18:37.054Z,4.27
2023-03-01T21:21:39.226Z,4.24
2023-03-01T21:24:42.507Z,4.19
2023-03-01T21:27:44.806Z,4.13
2023-03-01T21:30:47.114Z,4.09
2023-03-01T21:33:54.349Z,4.05
2023-03-01T21:36:56.514Z,4.07
2023-03-01T21:39:58.608Z,4.06
2023-03-01T21:43:00.886Z,4.07
2023-03-01T21:46:08.839Z,4.06
2023-03-01T21:49:11.343Z,4.10
2023-03-01T21:52:16.919Z,4.10
2023-03-01T21:55:19.131Z,4.10
2023-03-01T21:58:21.390Z,4.08
2023-03-01T22:01:26.148Z,4.08
2023-03-01T22:04:28.305Z,4.07
2023-03-01T22:07:30.989Z,4.05
2023-03-01T22:10:34.471Z,4.08
2023-03-01T22:13:36.532Z,4.10
2023-03-01T22:16:40.386Z,4.10
2023-03-01T22:19:42.885Z,4.11
2023-03-01T22:22:44.936Z,4.08
2023-03-01T22:25:47.208Z,4.06
2023-03-01T22:28:49.661Z,4.08
2023-03-01T22:31:53.275Z,4.07
2023-03-01T22:34:55.424Z,4.05
2023-03-01T22:37:57.545Z,4.07
2023-03-01T22:41:02.347Z,4.07
2023-03-01T22:44:04.735Z,4.09
2023-03-01T22:47:06.735Z,4.08
2023-03-01T22:50:13.109Z,4.11
2023-03-01T22:53:15.782Z,4.12
2023-03-01T22:56:21.251Z,4.15
2023-03-01T22:59:24.114Z,4.16
2023-03-01T23:02:26.435Z,4.16
2023-03-01T23:05:28.795Z,4.20
2023-03-01T23:08:31.060Z,4.23
2023-03-01T23:11:36.046Z,4.29
2023-03-01T23:14:39.383Z,4.44
2023-03-01T23:17:41.480Z,4.56
2023-03-01T23:20:43.623Z,4.72
2023-03-01T23:23:49.732Z,4.79
2023-03-01T23:26:53.511Z,4.82
2023-03-01T23:29:55.579Z,4.85
2023-03-01T23:33:00.268Z,4.92
2023-03-01T23:36:03.046Z,4.92
2023-03-01T23:39:07.977Z,4.90
2023-03-01T23:42:10.262Z,4.89
2023-03-01T23:45:12.915Z,4.89
2023-03-01T23:48:15.369Z,4.88
2023-03-01T23:51:18.449Z,4.88
2023-03-01T23:54:23.330Z,4.88
2023-03-01T23:57:25.430Z,4.87
